createdAt,value
2018-08-19T00:00:07.492Z,1017.72
2018-08-19T00:01:08.079Z,1017.65
2018-08-19T00:02:08.652Z,1017.72
2018-08-19T00:03:09.231Z,1017.72
2018-08-19T00:04:09.813Z,1017.73
2018-08-19T00:05:10.396Z,1017.71
2018-08-19T00:06:10.978Z,1017.78
2018-08-19T00:07:11.557Z,1017.74
2018-08-19T00:08:12.137Z,1017.78
2018-08-19T00:09:12.718Z,1017.75
2018-08-19T00:10:13.390Z,1017.85
2018-08-19T00:11:14.023Z,1017.82
2018-08-19T00:12:14.654Z,1017.85
2018-08-19T00:13:15.234Z,1017.78
2018-08-19T00:14:15.817Z,1017.80
2018-08-19T00:15:16.442Z,1017.80
2018-08-19T00:16:17.017Z,1017.85
2018-08-19T00:17:17.601Z,1017.85
2018-08-19T00:18:18.176Z,1017.80
2018-08-19T00:19:18.752Z,1017.82
2018-08-19T00:20:19.338Z,1017.79
2018-08-19T00:21:19.918Z,1017.82
2018-08-19T00:22:20.495Z,1017.84
2018-08-19T00:23:21.074Z,1017.88
2018-08-19T00:24:21.660Z,1017.86
2018-08-19T00:25:22.236Z,1017.86
2018-08-19T00:26:22.819Z,1017.84
2018-08-19T00:27:23.451Z,1017.82
2018-08-19T00:28:24.082Z,1017.88
2018-08-19T00:29:24.668Z,1017.95
2018-08-19T00:30:25.251Z,1017.85
2018-08-19T00:31:25.833Z,1017.91
2018-08-19T00:32:26.413Z,1017.93
2018-08-19T00:33:26.995Z,1017.95
2018-08-19T00:34:27.576Z,1017.91
2018-08-19T00:35:28.161Z,1017.85
2018-08-19T00:36:28.739Z,1017.93
2018-08-19T00:37:29.320Z,1017.84
2018-08-19T00:38:29.901Z,1017.92
2018-08-19T00:39:30.484Z,1017.95
2018-08-19T00:40:31.065Z,1017.84
2018-08-19T00:41:31.842Z,1017.85
2018-08-19T00:42:32.422Z,1017.88
2018-08-19T00:43:33.055Z,1017.82
2018-08-19T00:44:33.634Z,1017.89
2018-08-19T00:45:34.260Z,1017.85
2018-08-19T00:46:34.839Z,1017.90
2018-08-19T00:47:35.420Z,1017.87
2018-08-19T00:48:36.001Z,1017.93
2018-08-19T00:49:36.581Z,1017.89
2018-08-19T00:50:37.164Z,1017.81
2018-08-19T00:51:37.745Z,1017.94
2018-08-19T00:52:38.377Z,1017.97
2018-08-19T00:53:38.953Z,1017.86
2018-08-19T00:54:39.535Z,1017.94
2018-08-19T00:55:40.113Z,1017.87
2018-08-19T00:56:40.700Z,1017.87
2018-08-19T00:57:41.324Z,1017.90
2018-08-19T00:58:41.959Z,1017.90
2018-08-19T00:59:42.535Z,1017.86
2018-08-19T01:00:43.112Z,1017.88
2018-08-19T01:01:43.702Z,1017.84
2018-08-19T01:02:44.276Z,1017.87
2018-08-19T01:03:44.858Z,1017.83
2018-08-19T01:04:45.433Z,1017.84
2018-08-19T01:05:46.014Z,1017.87
2018-08-19T01:06:46.637Z,1017.81
2018-08-19T01:07:47.219Z,1017.87
2018-08-19T01:08:47.793Z,1017.76
2018-08-19T01:09:48.375Z,1017.85
2018-08-19T01:10:48.951Z,1017.82
2018-08-19T01:11:49.539Z,1017.84
2018-08-19T01:12:50.114Z,1017.80
2018-08-19T01:13:50.744Z,1017.78
2018-08-19T01:14:51.375Z,1017.87
2018-08-19T01:15:51.954Z,1017.75
2018-08-19T01:16:52.539Z,1017.79
2018-08-19T01:17:53.164Z,1017.72
2018-08-19T01:18:53.792Z,1017.79
2018-08-19T01:19:54.424Z,1017.81
2018-08-19T01:20:54.999Z,1017.86
2018-08-19T01:21:55.580Z,1017.73
2018-08-19T01:22:56.160Z,1017.75
2018-08-19T01:23:56.741Z,1017.71
2018-08-19T01:24:57.325Z,1017.76
2018-08-19T01:25:57.905Z,1017.66
2018-08-19T01:26:58.484Z,1017.86
2018-08-19T01:27:59.068Z,1017.78
2018-08-19T01:28:59.649Z,1017.74
2018-08-19T01:30:00.226Z,1017.68
2018-08-19T01:31:00.855Z,1017.70
2018-08-19T01:32:01.435Z,1017.76
2018-08-19T01:33:02.062Z,1017.73
2018-08-19T01:34:02.689Z,1017.71
2018-08-19T01:35:03.273Z,1017.77
2018-08-19T01:36:03.856Z,1017.76
2018-08-19T01:37:04.487Z,1017.76
2018-08-19T01:38:05.067Z,1017.68
2018-08-19T01:39:05.650Z,1017.72
2018-08-19T01:40:06.230Z,1017.72
2018-08-19T01:41:06.808Z,1017.69
2018-08-19T01:42:07.387Z,1017.69
2018-08-19T01:43:07.969Z,1017.74
2018-08-19T01:44:08.546Z,1017.75
2018-08-19T01:45:09.128Z,1017.73
2018-08-19T01:46:09.711Z,1017.66
2018-08-19T01:47:10.290Z,1017.70
2018-08-19T01:48:10.869Z,1017.73
2018-08-19T01:49:11.500Z,1017.76
2018-08-19T01:50:12.077Z,1017.68
2018-08-19T01:51:12.662Z,1017.72
2018-08-19T01:52:13.238Z,1017.70
2018-08-19T01:53:13.816Z,1017.69
2018-08-19T01:54:14.392Z,1017.73
2018-08-19T01:55:14.973Z,1017.74
2018-08-19T01:56:15.598Z,1017.79
2018-08-19T01:57:16.182Z,1017.74
2018-08-19T01:58:16.763Z,1017.74
2018-08-19T01:59:17.340Z,1017.80
2018-08-19T02:00:17.973Z,1017.79
2018-08-19T02:01:18.555Z,1017.68
2018-08-19T02:02:19.128Z,1017.70
2018-08-19T02:03:19.708Z,1017.73
2018-08-19T02:04:20.342Z,1017.69
2018-08-19T02:05:20.922Z,1017.72
2018-08-19T02:06:21.502Z,1017.67
2018-08-19T02:07:22.082Z,1017.74
2018-08-19T02:08:22.666Z,1017.71
2018-08-19T02:09:23.247Z,1017.64
2018-08-19T02:10:23.821Z,1017.65
2018-08-19T02:11:24.403Z,1017.71
2018-08-19T02:12:25.032Z,1017.76
2018-08-19T02:13:25.613Z,1017.75
2018-08-19T02:14:26.196Z,1017.66
2018-08-19T02:15:26.772Z,1017.66
2018-08-19T02:16:27.352Z,1017.62
2018-08-19T02:17:27.975Z,1017.65
2018-08-19T02:18:28.551Z,1017.62
2018-08-19T02:19:29.129Z,1017.66
2018-08-19T02:20:29.734Z,1017.66
2018-08-19T02:21:30.336Z,1017.69
2018-08-19T02:22:30.918Z,1017.63
2018-08-19T02:23:31.495Z,1017.68
2018-08-19T02:24:32.081Z,1017.63
2018-08-19T02:25:32.706Z,1017.61
2018-08-19T02:26:33.282Z,1017.57
2018-08-19T02:27:33.866Z,1017.56
2018-08-19T02:28:34.495Z,1017.60
2018-08-19T02:29:35.122Z,1017.58
2018-08-19T02:30:35.704Z,1017.65
2018-08-19T02:31:36.285Z,1017.53
2018-08-19T02:32:36.916Z,1017.58
2018-08-19T02:33:37.498Z,1017.57
2018-08-19T02:34:38.116Z,1017.57
2018-08-19T02:35:38.701Z,1017.60
2018-08-19T02:36:39.277Z,1017.60
2018-08-19T02:37:39.859Z,1017.59
2018-08-19T02:38:40.439Z,1017.60
2018-08-19T02:39:41.067Z,1017.58
2018-08-19T02:40:41.738Z,1017.55
2018-08-19T02:41:42.317Z,1017.67
2018-08-19T02:42:42.899Z,1017.53
2018-08-19T02:43:43.478Z,1017.58
2018-08-19T02:44:44.059Z,1017.52
2018-08-19T02:45:44.633Z,1017.57
2018-08-19T02:46:45.219Z,1017.63
2018-08-19T02:47:45.801Z,1017.54
2018-08-19T02:48:46.429Z,1017.52
2018-08-19T02:49:47.057Z,1017.59
2018-08-19T02:50:47.635Z,1017.56
2018-08-19T02:51:48.211Z,1017.52
2018-08-19T02:52:48.792Z,1017.58
2018-08-19T02:53:49.425Z,1017.58
2018-08-19T02:54:50.010Z,1017.52
2018-08-19T02:55:50.687Z,1017.61
2018-08-19T02:56:51.267Z,1017.52
2018-08-19T02:57:51.892Z,1017.52
2018-08-19T02:58:57.523Z,1017.49
2018-08-19T02:59:58.098Z,1017.55
2018-08-19T03:00:58.682Z,1017.61
2018-08-19T03:01:59.262Z,1017.50
2018-08-19T03:02:59.841Z,1017.56
2018-08-19T03:04:00.420Z,1017.58
2018-08-19T03:05:00.995Z,1017.58
2018-08-19T03:06:01.577Z,1017.60
2018-08-19T03:07:02.204Z,1017.56
2018-08-19T03:08:02.787Z,1017.51
2018-08-19T03:09:03.411Z,1017.60
2018-08-19T03:10:03.943Z,1017.58
2018-08-19T03:11:04.523Z,1017.55
2018-08-19T03:12:05.152Z,1017.52
2018-08-19T03:13:05.732Z,1017.59
2018-08-19T03:14:06.313Z,1017.65
2018-08-19T03:15:06.956Z,1017.57
2018-08-19T03:16:07.517Z,1017.58
2018-08-19T03:17:08.100Z,1017.57
2018-08-19T03:18:08.674Z,1017.62
2018-08-19T03:19:09.259Z,1017.51
2018-08-19T03:20:09.831Z,1017.57
2018-08-19T03:21:10.414Z,1017.63
2018-08-19T03:22:10.996Z,1017.56
2018-08-19T03:23:11.573Z,1017.55
2018-08-19T03:24:12.153Z,1017.52
2018-08-19T03:25:12.734Z,1017.55
2018-08-19T03:26:13.313Z,1017.57
2018-08-19T03:27:13.943Z,1017.55
2018-08-19T03:28:14.518Z,1017.52
2018-08-19T03:29:15.102Z,1017.61
2018-08-19T03:30:15.689Z,1017.49
2018-08-19T03:31:16.465Z,1017.49
2018-08-19T03:32:17.052Z,1017.54
2018-08-19T03:33:17.628Z,1017.54
2018-08-19T03:34:18.215Z,1017.56
2018-08-19T03:35:18.794Z,1017.56
2018-08-19T03:36:19.425Z,1017.59
2018-08-19T03:37:20.000Z,1017.60
2018-08-19T03:38:20.586Z,1017.59
2018-08-19T03:39:21.162Z,1017.61
2018-08-19T03:40:21.744Z,1017.57
2018-08-19T03:41:22.323Z,1017.63
2018-08-19T03:42:22.949Z,1017.55
2018-08-19T03:43:23.571Z,1017.57
2018-08-19T03:44:24.147Z,1017.54
2018-08-19T03:45:24.729Z,1017.58
2018-08-19T03:46:25.309Z,1017.60
2018-08-19T03:47:25.890Z,1017.52
2018-08-19T03:48:26.470Z,1017.51
2018-08-19T03:49:27.102Z,1017.50
2018-08-19T03:50:27.686Z,1017.56
2018-08-19T03:51:28.313Z,1017.50
2018-08-19T03:52:28.887Z,1017.52
2018-08-19T03:53:29.467Z,1017.60
2018-08-19T03:54:30.048Z,1017.50
2018-08-19T03:55:30.671Z,1017.58
2018-08-19T03:56:31.251Z,1017.53
2018-08-19T03:57:31.831Z,1017.54
2018-08-19T03:58:32.403Z,1017.54
2018-08-19T03:59:32.982Z,1017.54
2018-08-19T04:00:33.560Z,1017.54
2018-08-19T04:01:34.135Z,1017.55
2018-08-19T04:02:34.720Z,1017.57
2018-08-19T04:03:35.300Z,1017.57
2018-08-19T04:04:36.081Z,1017.62
2018-08-19T04:05:36.656Z,1017.55
2018-08-19T04:06:37.235Z,1017.55
2018-08-19T04:07:37.809Z,1017.63
2018-08-19T04:08:38.437Z,1017.67
2018-08-19T04:09:39.020Z,1017.59
2018-08-19T04:10:39.602Z,1017.65
2018-08-19T04:11:40.179Z,1017.60
2018-08-19T04:12:40.810Z,1017.65
2018-08-19T04:13:41.392Z,1017.63
2018-08-19T04:14:41.974Z,1017.70
2018-08-19T04:15:42.549Z,1017.69
2018-08-19T04:16:43.133Z,1017.62
2018-08-19T04:17:43.710Z,1017.65
2018-08-19T04:18:44.287Z,1017.71
2018-08-19T04:19:44.871Z,1017.63
2018-08-19T04:20:45.495Z,1017.62
2018-08-19T04:21:46.073Z,1017.75
2018-08-19T04:22:46.657Z,1017.73
2018-08-19T04:23:47.230Z,1017.65
2018-08-19T04:24:47.807Z,1017.66
2018-08-19T04:25:48.393Z,1017.59
2018-08-19T04:26:48.976Z,1017.64
2018-08-19T04:27:49.557Z,1017.69
2018-08-19T04:28:50.191Z,1017.67
2018-08-19T04:29:50.769Z,1017.69
2018-08-19T04:30:51.350Z,1017.69
2018-08-19T04:31:51.930Z,1017.69
2018-08-19T04:32:52.513Z,1017.74
2018-08-19T04:33:53.092Z,1017.74
2018-08-19T04:34:53.717Z,1017.74
2018-08-19T04:35:54.401Z,1017.80
2018-08-19T04:36:54.971Z,1017.76
2018-08-19T04:37:55.597Z,1017.76
2018-08-19T04:38:56.176Z,1017.72
2018-08-19T04:39:56.801Z,1017.80
2018-08-19T04:40:57.385Z,1017.74
2018-08-19T04:41:57.965Z,1017.77
2018-08-19T04:42:58.552Z,1017.78
2018-08-19T04:43:59.131Z,1017.82
2018-08-19T04:44:59.809Z,1017.79
2018-08-19T04:46:00.392Z,1017.72
2018-08-19T04:47:00.967Z,1017.75
2018-08-19T04:48:01.547Z,1017.75
2018-08-19T04:49:02.121Z,1017.73
2018-08-19T04:50:02.698Z,1017.77
2018-08-19T04:51:03.281Z,1017.79
2018-08-19T04:52:03.858Z,1017.73
2018-08-19T04:53:04.438Z,1017.73
2018-08-19T04:54:05.018Z,1017.71
2018-08-19T04:55:05.593Z,1017.76
2018-08-19T04:56:06.175Z,1017.76
2018-08-19T04:57:06.756Z,1017.77
2018-08-19T04:58:07.389Z,1017.79
2018-08-19T04:59:08.015Z,1017.77
2018-08-19T05:00:08.641Z,1017.80
2018-08-19T05:01:09.225Z,1017.77
2018-08-19T05:02:09.884Z,1017.76
2018-08-19T05:03:10.380Z,1017.80
2018-08-19T05:04:10.997Z,1017.78
2018-08-19T05:05:11.588Z,1017.76
2018-08-19T05:06:12.161Z,1017.79
2018-08-19T05:07:12.745Z,1017.79
2018-08-19T05:08:13.495Z,1017.80
2018-08-19T05:09:13.907Z,1017.81
2018-08-19T05:10:14.484Z,1017.84
2018-08-19T05:11:15.067Z,1017.79
2018-08-19T05:12:15.649Z,1017.81
2018-08-19T05:13:16.225Z,1017.81
2018-08-19T05:14:16.901Z,1017.79
2018-08-19T05:15:17.533Z,1017.83
2018-08-19T05:16:18.115Z,1017.88
2018-08-19T05:17:18.746Z,1017.94
2018-08-19T05:18:19.320Z,1017.85
2018-08-19T05:19:19.899Z,1017.85
2018-08-19T05:20:20.484Z,1017.89
2018-08-19T05:21:21.062Z,1017.84
2018-08-19T05:22:21.653Z,1017.85
2018-08-19T05:23:22.223Z,1017.86
2018-08-19T05:24:22.807Z,1017.89
2018-08-19T05:25:23.387Z,1017.91
2018-08-19T05:26:23.969Z,1017.86
2018-08-19T05:27:24.545Z,1017.84
2018-08-19T05:28:25.171Z,1017.88
2018-08-19T05:29:25.703Z,1017.88
2018-08-19T05:30:26.386Z,1017.89
2018-08-19T05:31:27.021Z,1017.82
2018-08-19T05:32:27.646Z,1017.91
2018-08-19T05:33:28.231Z,1017.86
2018-08-19T05:34:28.809Z,1017.85
2018-08-19T05:35:29.389Z,1017.94
2018-08-19T05:36:29.971Z,1017.83
2018-08-19T05:37:30.749Z,1017.90
2018-08-19T05:38:31.325Z,1017.86
2018-08-19T05:39:31.906Z,1017.89
2018-08-19T05:40:32.482Z,1017.92
2018-08-19T05:41:33.067Z,1017.93
2018-08-19T05:42:33.645Z,1017.93
2018-08-19T05:43:34.234Z,1017.95
2018-08-19T05:44:34.858Z,1017.93
2018-08-19T05:45:35.440Z,1017.97
2018-08-19T05:46:36.015Z,1017.96
2018-08-19T05:47:36.597Z,1017.99
2018-08-19T05:48:37.220Z,1018.06
2018-08-19T05:49:37.799Z,1018.05
2018-08-19T05:50:38.378Z,1018.05
2018-08-19T05:51:39.005Z,1018.07
2018-08-19T05:52:39.591Z,1018.00
2018-08-19T05:53:40.168Z,1018.06
2018-08-19T05:54:40.750Z,1018.13
2018-08-19T05:55:41.473Z,1018.10
2018-08-19T05:56:41.960Z,1018.13
2018-08-19T05:57:42.537Z,1018.08
2018-08-19T05:58:43.116Z,1018.10
2018-08-19T05:59:43.699Z,1018.15
2018-08-19T06:00:44.328Z,1018.11
2018-08-19T06:01:44.906Z,1018.22
2018-08-19T06:02:45.480Z,1018.18
2018-08-19T06:03:46.055Z,1018.23
2018-08-19T06:04:46.642Z,1018.09
2018-08-19T06:05:47.223Z,1018.21
2018-08-19T06:06:47.801Z,1018.24
2018-08-19T06:07:48.383Z,1018.19
2018-08-19T06:08:49.016Z,1018.24
2018-08-19T06:09:49.653Z,1018.23
2018-08-19T06:10:50.274Z,1018.17
2018-08-19T06:11:50.857Z,1018.24
2018-08-19T06:12:51.529Z,1018.25
2018-08-19T06:13:52.109Z,1018.23
2018-08-19T06:14:52.695Z,1018.21
2018-08-19T06:15:53.332Z,1018.22
2018-08-19T06:16:53.853Z,1018.20
2018-08-19T06:17:54.432Z,1018.18
2018-08-19T06:18:55.012Z,1018.22
2018-08-19T06:19:55.587Z,1018.17
2018-08-19T06:20:56.171Z,1018.26
2018-08-19T06:21:56.773Z,1018.27
2018-08-19T06:22:57.329Z,1018.31
2018-08-19T06:23:57.911Z,1018.27
2018-08-19T06:24:58.495Z,1018.32
2018-08-19T06:25:59.122Z,1018.33
2018-08-19T06:26:59.708Z,1018.36
2018-08-19T06:28:00.284Z,1018.31
2018-08-19T06:29:00.917Z,1018.35
2018-08-19T06:30:01.498Z,1018.35
2018-08-19T06:31:02.095Z,1018.36
2018-08-19T06:32:02.717Z,1018.33
2018-08-19T06:33:03.286Z,1018.41
2018-08-19T06:34:03.871Z,1018.33
2018-08-19T06:35:04.628Z,1018.31
2018-08-19T06:36:05.029Z,1018.38
2018-08-19T06:37:05.625Z,1018.36
2018-08-19T06:38:06.193Z,1018.42
2018-08-19T06:39:06.774Z,1018.33
2018-08-19T06:40:07.402Z,1018.31
2018-08-19T06:41:07.984Z,1018.41
2018-08-19T06:42:08.565Z,1018.32
2018-08-19T06:43:09.196Z,1018.41
2018-08-19T06:44:09.724Z,1018.34
2018-08-19T06:45:10.302Z,1018.35
2018-08-19T06:46:10.883Z,1018.38
2018-08-19T06:47:11.461Z,1018.36
2018-08-19T06:48:12.088Z,1018.34
2018-08-19T06:49:12.677Z,1018.37
2018-08-19T06:50:13.299Z,1018.43
2018-08-19T06:51:13.976Z,1018.40
2018-08-19T06:52:14.554Z,1018.43
2018-08-19T06:53:15.177Z,1018.46
2018-08-19T06:54:15.761Z,1018.43
2018-08-19T06:55:16.335Z,1018.46
2018-08-19T06:56:16.916Z,1018.40
2018-08-19T06:57:17.497Z,1018.43
2018-08-19T06:58:18.077Z,1018.41
2018-08-19T06:59:18.654Z,1018.50
2018-08-19T07:00:19.230Z,1018.53
2018-08-19T07:01:19.814Z,1018.50
2018-08-19T07:02:20.394Z,1018.61
2018-08-19T07:03:21.040Z,1018.56
2018-08-19T07:04:21.607Z,1018.54
2018-08-19T07:05:22.181Z,1018.53
2018-08-19T07:06:22.763Z,1018.62
2018-08-19T07:07:23.347Z,1018.63
2018-08-19T07:08:24.011Z,1018.65
2018-08-19T07:09:24.596Z,1018.61
2018-08-19T07:10:25.176Z,1018.65
2018-08-19T07:11:25.757Z,1018.63
2018-08-19T07:12:26.386Z,1018.69
2018-08-19T07:13:26.962Z,1018.63
2018-08-19T07:14:27.543Z,1018.69
2018-08-19T07:15:28.178Z,1018.63
2018-08-19T07:16:28.796Z,1018.60
2018-08-19T07:17:29.377Z,1018.72
2018-08-19T07:18:29.953Z,1018.65
2018-08-19T07:19:30.541Z,1018.66
2018-08-19T07:20:31.118Z,1018.64
2018-08-19T07:21:31.713Z,1018.66
2018-08-19T07:22:32.281Z,1018.67
2018-08-19T07:23:32.864Z,1018.70
2018-08-19T07:24:33.495Z,1018.68
2018-08-19T07:25:34.077Z,1018.70
2018-08-19T07:26:34.659Z,1018.73
2018-08-19T07:27:35.289Z,1018.70
2018-08-19T07:28:35.870Z,1018.76
2018-08-19T07:29:36.455Z,1018.68
2018-08-19T07:30:37.080Z,1018.80
2018-08-19T07:31:37.661Z,1018.72
2018-08-19T07:32:38.283Z,1018.75
2018-08-19T07:33:38.864Z,1018.69
2018-08-19T07:34:39.446Z,1018.73
2018-08-19T07:35:40.025Z,1018.75
2018-08-19T07:36:40.656Z,1018.80
2018-08-19T07:37:41.183Z,1018.75
2018-08-19T07:38:41.762Z,1018.80
2018-08-19T07:39:42.393Z,1018.80
2018-08-19T07:40:42.973Z,1018.81
2018-08-19T07:41:43.555Z,1018.79
2018-08-19T07:42:44.183Z,1018.81
2018-08-19T07:43:44.800Z,1018.81
2018-08-19T07:44:45.338Z,1018.78
2018-08-19T07:45:45.920Z,1018.82
2018-08-19T07:46:46.499Z,1018.85
2018-08-19T07:47:47.126Z,1018.82
2018-08-19T07:48:47.704Z,1018.79
2018-08-19T07:49:48.337Z,1018.82
2018-08-19T07:50:48.920Z,1018.83
2018-08-19T07:51:49.502Z,1018.85
2018-08-19T07:52:50.078Z,1018.83
2018-08-19T07:53:50.664Z,1018.81
2018-08-19T07:54:51.244Z,1018.80
2018-08-19T07:55:51.822Z,1018.83
2018-08-19T07:56:52.402Z,1018.83
2018-08-19T07:57:52.986Z,1018.82
2018-08-19T07:58:53.617Z,1018.77
2018-08-19T07:59:54.249Z,1018.84
2018-08-19T08:00:54.823Z,1018.88
2018-08-19T08:01:55.401Z,1018.90
2018-08-19T08:02:55.994Z,1018.92
2018-08-19T08:03:56.569Z,1018.93
2018-08-19T08:04:57.199Z,1018.97
2018-08-19T08:05:57.829Z,1018.82
2018-08-19T08:06:58.410Z,1018.93
2018-08-19T08:07:59.042Z,1018.98
2018-08-19T08:08:59.619Z,1019.00
2018-08-19T08:10:00.196Z,1018.98
2018-08-19T08:11:00.888Z,1018.95
2018-08-19T08:12:01.454Z,1018.94
2018-08-19T08:13:02.079Z,1018.95
2018-08-19T08:14:02.659Z,1018.96
2018-08-19T08:15:03.232Z,1018.88
2018-08-19T08:16:03.821Z,1018.94
2018-08-19T08:17:04.398Z,1019.02
2018-08-19T08:18:04.981Z,1018.95
2018-08-19T08:19:05.613Z,1018.98
2018-08-19T08:20:06.195Z,1018.93
2018-08-19T08:21:06.801Z,1018.89
2018-08-19T08:22:07.353Z,1018.92
2018-08-19T08:23:07.929Z,1018.91
2018-08-19T08:24:08.565Z,1018.95
2018-08-19T08:25:09.142Z,1018.88
2018-08-19T08:26:09.721Z,1018.96
2018-08-19T08:27:10.305Z,1018.95
2018-08-19T08:28:10.941Z,1018.93
2018-08-19T08:29:11.582Z,1019.00
2018-08-19T08:30:12.094Z,1018.95
2018-08-19T08:31:12.718Z,1018.93
2018-08-19T08:32:13.303Z,1018.93
2018-08-19T08:33:13.884Z,1018.97
2018-08-19T08:34:14.499Z,1018.96
2018-08-19T08:35:15.095Z,1018.97
2018-08-19T08:36:15.677Z,1018.92
2018-08-19T08:37:16.253Z,1018.97
2018-08-19T08:38:16.840Z,1018.89
2018-08-19T08:39:17.423Z,1018.89
2018-08-19T08:40:18.051Z,1018.89
2018-08-19T08:41:18.630Z,1018.95
2018-08-19T08:42:19.213Z,1018.90
2018-08-19T08:43:19.788Z,1018.97
2018-08-19T08:44:20.419Z,1018.86
2018-08-19T08:45:20.997Z,1018.93
2018-08-19T08:46:21.575Z,1018.96
2018-08-19T08:47:22.208Z,1018.95
2018-08-19T08:48:22.744Z,1018.94
2018-08-19T08:49:23.374Z,1018.96
2018-08-19T08:50:23.952Z,1019.02
2018-08-19T08:51:24.536Z,1018.88
2018-08-19T08:52:25.122Z,1018.96
2018-08-19T08:53:25.722Z,1018.96
2018-08-19T08:54:26.334Z,1019.02
2018-08-19T08:55:26.917Z,1018.96
2018-08-19T08:56:27.554Z,1019.00
2018-08-19T08:57:28.080Z,1018.95
2018-08-19T08:58:28.657Z,1018.92
2018-08-19T08:59:29.243Z,1018.92
2018-08-19T09:00:29.823Z,1019.02
2018-08-19T09:01:30.405Z,1019.02
2018-08-19T09:02:30.988Z,1019.01
2018-08-19T09:03:31.566Z,1019.08
2018-08-19T09:04:32.152Z,1019.10
2018-08-19T09:05:32.781Z,1018.99
2018-08-19T09:06:33.360Z,1019.08
2018-08-19T09:07:33.942Z,1019.07
2018-08-19T09:08:34.521Z,1019.06
2018-08-19T09:09:35.105Z,1019.07
2018-08-19T09:10:35.691Z,1019.02
2018-08-19T09:11:36.366Z,1018.95
2018-08-19T09:12:36.943Z,1019.00
2018-08-19T09:13:37.527Z,1019.00
2018-08-19T09:14:38.159Z,1019.01
2018-08-19T09:15:38.738Z,1018.98
2018-08-19T09:16:39.318Z,1018.98
2018-08-19T09:17:39.897Z,1019.00
2018-08-19T09:18:40.480Z,1019.00
2018-08-19T09:19:41.060Z,1019.00
2018-08-19T09:20:41.694Z,1018.98
2018-08-19T09:21:42.272Z,1018.94
2018-08-19T09:22:42.901Z,1019.01
2018-08-19T09:23:43.534Z,1018.95
2018-08-19T09:24:44.116Z,1018.96
2018-08-19T09:25:44.697Z,1018.99
2018-08-19T09:26:45.282Z,1018.88
2018-08-19T09:27:45.865Z,1018.94
2018-08-19T09:28:46.490Z,1018.94
2018-08-19T09:29:47.073Z,1018.91
2018-08-19T09:30:47.651Z,1018.98
2018-08-19T09:31:48.239Z,1018.96
2018-08-19T09:32:48.868Z,1018.89
2018-08-19T09:33:49.457Z,1019.02
2018-08-19T09:34:50.085Z,1018.99
2018-08-19T09:35:50.668Z,1018.95
2018-08-19T09:36:51.246Z,1018.90
2018-08-19T09:37:51.824Z,1019.00
2018-08-19T09:38:52.407Z,1018.95
2018-08-19T09:39:53.038Z,1018.90
2018-08-19T09:40:53.755Z,1018.89
2018-08-19T09:41:54.241Z,1018.96
2018-08-19T09:42:54.823Z,1018.97
2018-08-19T09:43:55.401Z,1019.00
2018-08-19T09:44:55.985Z,1019.04
2018-08-19T09:45:56.616Z,1018.99
2018-08-19T09:46:57.200Z,1019.00
2018-08-19T09:47:57.924Z,1019.10
2018-08-19T09:48:58.361Z,1019.08
2018-08-19T09:49:58.987Z,1019.06
2018-08-19T09:50:59.569Z,1019.06
2018-08-19T09:52:00.151Z,1019.06
2018-08-19T09:53:00.733Z,1019.02
2018-08-19T09:54:01.315Z,1019.04
2018-08-19T09:55:01.897Z,1019.02
2018-08-19T09:56:02.473Z,1019.01
2018-08-19T09:57:03.055Z,1019.02
2018-08-19T09:58:03.689Z,1018.94
2018-08-19T09:59:04.267Z,1018.99
2018-08-19T10:00:04.850Z,1018.92
2018-08-19T10:01:05.425Z,1018.94
2018-08-19T10:02:06.009Z,1018.99
2018-08-19T10:03:06.587Z,1018.97
2018-08-19T10:04:07.169Z,1018.93
2018-08-19T10:05:07.802Z,1018.94
2018-08-19T10:06:08.385Z,1018.94
2018-08-19T10:07:08.961Z,1018.99
2018-08-19T10:08:09.548Z,1018.93
2018-08-19T10:09:10.176Z,1018.98
2018-08-19T10:10:10.762Z,1018.95
2018-08-19T10:11:11.394Z,1018.93
2018-08-19T10:12:11.978Z,1018.94
2018-08-19T10:13:12.557Z,1018.92
2018-08-19T10:14:13.340Z,1018.93
2018-08-19T10:15:13.926Z,1018.94
2018-08-19T10:16:14.503Z,1018.88
2018-08-19T10:17:15.090Z,1018.90
2018-08-19T10:18:15.672Z,1018.96
2018-08-19T10:19:16.246Z,1018.90
2018-08-19T10:20:16.877Z,1018.91
2018-08-19T10:21:17.492Z,1018.97
2018-08-19T10:22:18.080Z,1018.91
2018-08-19T10:23:18.663Z,1018.96
2018-08-19T10:24:19.242Z,1018.93
2018-08-19T10:25:19.825Z,1018.94
2018-08-19T10:26:20.407Z,1018.96
2018-08-19T10:27:20.990Z,1019.03
2018-08-19T10:28:21.570Z,1018.99
2018-08-19T10:29:22.147Z,1018.94
2018-08-19T10:30:22.728Z,1018.96
2018-08-19T10:31:23.414Z,1018.99
2018-08-19T10:32:23.937Z,1018.97
2018-08-19T10:33:24.565Z,1019.02
2018-08-19T10:34:25.200Z,1019.04
2018-08-19T10:35:25.784Z,1019.05
2018-08-19T10:36:26.360Z,1019.02
2018-08-19T10:37:26.944Z,1019.06
2018-08-19T10:38:27.584Z,1019.02
2018-08-19T10:39:28.159Z,1019.03
2018-08-19T10:40:28.743Z,1018.99
2018-08-19T10:41:29.320Z,1018.96
2018-08-19T10:42:29.904Z,1018.94
2018-08-19T10:43:30.486Z,1018.96
2018-08-19T10:44:31.070Z,1018.97
2018-08-19T10:45:31.657Z,1018.94
2018-08-19T10:46:32.242Z,1018.95
2018-08-19T10:47:32.821Z,1019.01
2018-08-19T10:48:33.406Z,1019.00
2018-08-19T10:49:34.031Z,1019.01
2018-08-19T10:50:34.661Z,1018.94
2018-08-19T10:51:35.246Z,1018.95
2018-08-19T10:52:35.826Z,1019.00
2018-08-19T10:53:36.409Z,1018.98
2018-08-19T10:54:36.987Z,1018.98
2018-08-19T10:55:37.618Z,1018.96
2018-08-19T10:56:38.195Z,1018.97
2018-08-19T10:57:38.829Z,1018.97
2018-08-19T10:58:39.413Z,1018.93
2018-08-19T10:59:39.998Z,1018.90
2018-08-19T11:00:40.577Z,1018.97
2018-08-19T11:01:41.159Z,1018.89
2018-08-19T11:02:41.742Z,1018.98
2018-08-19T11:03:42.321Z,1019.00
2018-08-19T11:04:42.901Z,1018.91
2018-08-19T11:05:43.539Z,1018.98
2018-08-19T11:06:44.176Z,1018.95
2018-08-19T11:07:44.744Z,1018.96
2018-08-19T11:08:45.325Z,1018.95
2018-08-19T11:09:45.907Z,1018.85
2018-08-19T11:10:46.583Z,1018.93
2018-08-19T11:11:47.165Z,1018.90
2018-08-19T11:12:47.751Z,1018.93
2018-08-19T11:13:48.414Z,1018.86
2018-08-19T11:14:48.960Z,1018.96
2018-08-19T11:15:49.537Z,1018.91
2018-08-19T11:16:50.119Z,1018.92
2018-08-19T11:17:50.703Z,1018.89
2018-08-19T11:18:51.280Z,1018.85
2018-08-19T11:19:51.867Z,1018.93
2018-08-19T11:20:52.494Z,1018.82
2018-08-19T11:21:53.031Z,1018.78
2018-08-19T11:22:53.611Z,1018.79
2018-08-19T11:23:54.196Z,1018.76
2018-08-19T11:24:54.774Z,1018.82
2018-08-19T11:25:55.359Z,1018.72
2018-08-19T11:26:55.942Z,1018.74
2018-08-19T11:27:56.518Z,1018.65
2018-08-19T11:28:57.100Z,1018.67
2018-08-19T11:29:57.679Z,1018.68
2018-08-19T11:30:58.363Z,1018.69
2018-08-19T11:31:58.990Z,1018.67
2018-08-19T11:32:59.671Z,1018.65
2018-08-19T11:34:00.423Z,1018.70
2018-08-19T11:35:00.936Z,1018.64
2018-08-19T11:36:01.524Z,1018.70
2018-08-19T11:37:02.149Z,1018.70
2018-08-19T11:38:02.730Z,1018.69
2018-08-19T11:39:03.313Z,1018.59
2018-08-19T11:40:03.897Z,1018.61
2018-08-19T11:41:04.530Z,1018.52
2018-08-19T11:42:05.115Z,1018.57
2018-08-19T11:43:05.700Z,1018.59
2018-08-19T11:44:06.288Z,1018.57
2018-08-19T11:45:06.917Z,1018.59
2018-08-19T11:46:07.497Z,1018.58
2018-08-19T11:47:08.083Z,1018.55
2018-08-19T11:48:08.665Z,1018.64
2018-08-19T11:49:09.248Z,1018.64
2018-08-19T11:50:09.833Z,1018.58
2018-08-19T11:51:10.423Z,1018.63
2018-08-19T11:52:11.085Z,1018.71
2018-08-19T11:53:11.718Z,1018.63
2018-08-19T11:54:12.302Z,1018.66
2018-08-19T11:55:12.968Z,1018.68
2018-08-19T11:56:13.512Z,1018.68
2018-08-19T11:57:14.101Z,1018.61
2018-08-19T11:58:14.730Z,1018.57
2018-08-19T11:59:15.315Z,1018.77
2018-08-19T12:00:15.893Z,1018.70
2018-08-19T12:01:16.485Z,1018.59
2018-08-19T12:02:17.073Z,1018.61
2018-08-19T12:03:17.648Z,1018.66
2018-08-19T12:04:18.225Z,1018.55
2018-08-19T12:05:18.810Z,1018.52
2018-08-19T12:06:19.390Z,1018.52
2018-08-19T12:07:19.976Z,1018.51
2018-08-19T12:08:20.561Z,1018.52
2018-08-19T12:09:21.146Z,1018.60
2018-08-19T12:10:21.781Z,1018.60
2018-08-19T12:11:22.360Z,1018.52
2018-08-19T12:12:22.943Z,1018.56